createdAt,value
2019-05-26T00:00:25.914Z,13.90
2019-05-26T00:01:02.011Z,14.00
2019-05-26T00:01:37.055Z,13.90
2019-05-26T00:02:12.715Z,13.90
2019-05-26T00:02:48.962Z,13.90
2019-05-26T00:03:24.256Z,13.90
2019-05-26T00:03:59.866Z,13.90
2019-05-26T00:04:36.559Z,13.90
2019-05-26T00:05:11.635Z,13.80
2019-05-26T00:05:47.530Z,13.80
2019-05-26T00:06:23.138Z,13.80
2019-05-26T00:06:58.205Z,13.80
2019-05-26T00:07:33.819Z,13.80
2019-05-26T00:08:09.759Z,13.80
2019-05-26T00:08:45.116Z,13.80
2019-05-26T00:09:20.756Z,13.80
2019-05-26T00:09:56.433Z,13.80
2019-05-26T00:10:31.486Z,13.80
2019-05-26T00:11:07.115Z,13.80
2019-05-26T00:11:42.719Z,13.80
2019-05-26T00:12:17.763Z,13.80
2019-05-26T00:12:53.437Z,13.80
2019-05-26T00:13:29.622Z,13.80
2019-05-26T00:14:04.754Z,13.80
2019-05-26T00:14:40.421Z,13.80
2019-05-26T00:15:16.028Z,13.80
2019-05-26T00:15:52.396Z,13.80
2019-05-26T00:16:28.015Z,13.80
2019-05-26T00:17:04.955Z,13.70
2019-05-26T00:17:40.040Z,13.80
2019-05-26T00:18:16.181Z,13.80
2019-05-26T00:18:52.106Z,13.80
2019-05-26T00:19:27.182Z,13.70
2019-05-26T00:20:02.867Z,13.80
2019-05-26T00:20:38.494Z,13.80
2019-05-26T00:21:13.525Z,13.80
2019-05-26T00:21:49.177Z,13.70
2019-05-26T00:22:24.870Z,13.70
2019-05-26T00:22:59.901Z,13.70
2019-05-26T00:23:35.616Z,13.70
2019-05-26T00:24:11.398Z,13.70
2019-05-26T00:24:46.439Z,13.70
2019-05-26T00:25:22.065Z,13.60
2019-05-26T00:25:57.754Z,13.60
2019-05-26T00:26:32.878Z,13.60
2019-05-26T00:27:08.643Z,13.60
2019-05-26T00:27:44.617Z,13.60
2019-05-26T00:28:19.730Z,13.60
2019-05-26T00:28:55.351Z,13.60
2019-05-26T00:29:31.327Z,13.60
2019-05-26T00:30:06.454Z,13.60
2019-05-26T00:30:42.073Z,13.60
2019-05-26T00:31:17.790Z,13.60
2019-05-26T00:31:52.845Z,13.60
2019-05-26T00:32:28.579Z,13.60
2019-05-26T00:33:04.834Z,13.60
2019-05-26T00:33:39.879Z,13.60
2019-05-26T00:34:15.501Z,13.50
2019-05-26T00:34:51.110Z,13.50
2019-05-26T00:35:26.223Z,13.50
2019-05-26T00:36:01.971Z,13.50
2019-05-26T00:36:37.582Z,13.50
2019-05-26T00:37:12.934Z,13.50
2019-05-26T00:37:50.528Z,13.50
2019-05-26T00:38:26.590Z,13.50
2019-05-26T00:39:01.887Z,13.50
2019-05-26T00:39:38.167Z,13.50
2019-05-26T00:40:13.790Z,13.40
2019-05-26T00:40:48.822Z,13.50
2019-05-26T00:41:24.481Z,13.40
2019-05-26T00:42:00.108Z,13.50
2019-05-26T00:42:35.146Z,13.40
2019-05-26T00:43:10.764Z,13.50
2019-05-26T00:43:46.367Z,13.40
2019-05-26T00:44:21.407Z,13.40
2019-05-26T00:44:57.412Z,13.40
2019-05-26T00:45:33.131Z,13.40
2019-05-26T00:46:08.187Z,13.40
2019-05-26T00:46:43.885Z,13.40
2019-05-26T00:47:19.579Z,13.40
2019-05-26T00:47:55.083Z,13.40
2019-05-26T00:48:30.968Z,13.40
2019-05-26T00:49:06.644Z,13.40
2019-05-26T00:49:41.700Z,13.40
2019-05-26T00:50:17.315Z,13.40
2019-05-26T00:50:52.911Z,13.40
2019-05-26T00:51:27.986Z,13.30
2019-05-26T00:52:03.712Z,13.30
2019-05-26T00:52:39.360Z,13.40
2019-05-26T00:53:14.718Z,13.30
2019-05-26T00:53:51.283Z,13.30
2019-05-26T00:54:26.894Z,13.30
2019-05-26T00:55:02.045Z,13.30
2019-05-26T00:55:38.295Z,13.30
2019-05-26T00:56:13.891Z,13.30
2019-05-26T00:56:49.266Z,13.30
2019-05-26T00:57:24.918Z,13.30
2019-05-26T00:58:00.946Z,13.30
2019-05-26T00:58:35.982Z,13.30
2019-05-26T00:59:11.678Z,13.30
2019-05-26T00:59:47.580Z,13.30
2019-05-26T01:00:38.335Z,13.30
2019-05-26T01:01:14.027Z,13.20
2019-05-26T01:01:49.659Z,13.20
2019-05-26T01:02:25.227Z,13.20
2019-05-26T01:03:00.899Z,13.30
2019-05-26T01:03:36.566Z,13.30
2019-05-26T01:04:12.052Z,13.30
2019-05-26T01:04:48.006Z,13.20
2019-05-26T01:05:25.283Z,13.20
2019-05-26T01:06:00.337Z,13.20
2019-05-26T01:06:36.178Z,13.30
2019-05-26T01:07:11.791Z,13.20
2019-05-26T01:07:46.842Z,13.20
2019-05-26T01:08:22.479Z,13.20
2019-05-26T01:08:58.092Z,13.20
2019-05-26T01:09:33.169Z,13.20
2019-05-26T01:10:09.001Z,13.20
2019-05-26T01:10:44.921Z,13.20
2019-05-26T01:11:20.043Z,13.20
2019-05-26T01:11:55.706Z,13.20
2019-05-26T01:12:31.328Z,13.20
2019-05-26T01:13:06.462Z,13.20
2019-05-26T01:13:42.078Z,13.20
2019-05-26T01:14:17.782Z,13.20
2019-05-26T01:14:52.817Z,13.10
2019-05-26T01:15:28.518Z,13.10
2019-05-26T01:16:04.255Z,13.10
2019-05-26T01:16:39.327Z,13.10
2019-05-26T01:17:16.023Z,13.10
2019-05-26T01:17:51.638Z,13.10
2019-05-26T01:18:26.707Z,13.10
2019-05-26T01:19:02.341Z,13.10
2019-05-26T01:19:39.607Z,13.10
2019-05-26T01:20:14.666Z,13.10
2019-05-26T01:20:50.275Z,13.10
2019-05-26T01:21:26.269Z,13.10
2019-05-26T01:22:01.351Z,13.10
2019-05-26T01:22:37.983Z,13.10
2019-05-26T01:23:14.214Z,13.10
2019-05-26T01:23:49.282Z,13.10
2019-05-26T01:24:24.891Z,13.10
2019-05-26T01:25:00.539Z,13.10
2019-05-26T01:25:35.955Z,13.10
2019-05-26T01:26:11.585Z,13.10
2019-05-26T01:26:47.186Z,13.10
2019-05-26T01:27:22.240Z,13.10
2019-05-26T01:27:58.872Z,13.10
2019-05-26T01:28:34.535Z,13.10
2019-05-26T01:29:09.567Z,13.10
2019-05-26T01:29:45.200Z,13.10
2019-05-26T01:30:22.579Z,13.00
2019-05-26T01:30:57.621Z,13.10
2019-05-26T01:31:33.236Z,13.10
2019-05-26T01:32:09.176Z,13.10
2019-05-26T01:32:44.215Z,13.10
2019-05-26T01:33:19.834Z,13.10
2019-05-26T01:33:55.742Z,13.10
2019-05-26T01:34:31.312Z,13.10
2019-05-26T01:35:07.931Z,13.10
2019-05-26T01:35:43.867Z,13.10
2019-05-26T01:36:18.898Z,13.10
2019-05-26T01:36:54.815Z,13.10
2019-05-26T01:37:30.470Z,13.10
2019-05-26T01:38:20.612Z,13.10
2019-05-26T01:38:42.891Z,13.10
2019-05-26T01:39:19.582Z,13.10
2019-05-26T01:39:54.961Z,13.10
2019-05-26T01:40:37.842Z,13.10
2019-05-26T01:41:14.430Z,13.10
2019-05-26T01:41:49.739Z,13.10
2019-05-26T01:42:25.395Z,13.10
2019-05-26T01:43:01.302Z,13.10
2019-05-26T01:43:36.344Z,13.10
2019-05-26T01:44:12.119Z,13.00
2019-05-26T01:44:48.008Z,13.10
2019-05-26T01:45:23.083Z,13.00
2019-05-26T01:45:58.798Z,13.00
2019-05-26T01:46:34.660Z,13.10
2019-05-26T01:47:09.695Z,13.00
2019-05-26T01:47:45.321Z,13.00
2019-05-26T01:48:21.271Z,13.00
2019-05-26T01:48:56.314Z,13.00
2019-05-26T01:49:31.932Z,13.00
2019-05-26T01:50:07.783Z,13.10
2019-05-26T01:50:43.095Z,13.10
2019-05-26T01:51:19.063Z,13.10
2019-05-26T01:51:54.666Z,13.10
2019-05-26T01:52:30.089Z,13.10
2019-05-26T01:53:07.516Z,13.10
2019-05-26T01:53:44.086Z,13.10
2019-05-26T01:54:19.477Z,13.00
2019-05-26T01:54:55.403Z,13.00
2019-05-26T01:55:31.007Z,13.10
2019-05-26T01:56:06.082Z,13.00
2019-05-26T01:56:41.982Z,13.00
2019-05-26T01:57:17.590Z,13.00
2019-05-26T01:57:52.643Z,13.00
2019-05-26T01:58:28.246Z,13.00
2019-05-26T01:59:04.033Z,13.00
2019-05-26T01:59:39.058Z,13.00
2019-05-26T02:00:14.681Z,13.00
2019-05-26T02:00:50.303Z,12.90
2019-05-26T02:01:25.335Z,13.00
2019-05-26T02:02:00.960Z,12.90
2019-05-26T02:02:36.586Z,12.90
2019-05-26T02:03:11.914Z,12.90
2019-05-26T02:03:47.530Z,13.00
2019-05-26T02:04:23.207Z,13.00
2019-05-26T02:04:58.247Z,13.00
2019-05-26T02:05:33.875Z,13.00
2019-05-26T02:06:09.491Z,12.90
2019-05-26T02:06:44.521Z,13.00
2019-05-26T02:07:20.136Z,13.00
2019-05-26T02:07:56.088Z,13.00
2019-05-26T02:08:39.297Z,13.00
2019-05-26T02:09:08.923Z,13.00
2019-05-26T02:09:44.884Z,13.00
2019-05-26T02:10:20.603Z,13.00
2019-05-26T02:10:56.227Z,13.00
2019-05-26T02:11:32.148Z,13.00
2019-05-26T02:12:07.738Z,13.00
2019-05-26T02:12:43.378Z,13.00
2019-05-26T02:13:18.990Z,13.00
2019-05-26T02:13:54.026Z,13.00
2019-05-26T02:14:29.668Z,13.00
2019-05-26T02:15:05.391Z,13.00
2019-05-26T02:15:40.709Z,13.00
2019-05-26T02:16:16.351Z,13.00
2019-05-26T02:16:51.970Z,13.00
2019-05-26T02:17:27.013Z,13.00
2019-05-26T02:18:02.810Z,13.00
2019-05-26T02:18:38.427Z,13.00
2019-05-26T02:19:13.462Z,13.10
2019-05-26T02:19:49.082Z,13.00
2019-05-26T02:20:24.698Z,13.10
2019-05-26T02:20:59.738Z,13.00
2019-05-26T02:21:35.361Z,13.10
2019-05-26T02:22:10.985Z,13.10
2019-05-26T02:22:46.034Z,13.10
2019-05-26T02:23:21.651Z,13.10
2019-05-26T02:23:57.279Z,13.10
2019-05-26T02:24:32.598Z,13.00
2019-05-26T02:25:08.310Z,13.10
2019-05-26T02:25:43.939Z,13.10
2019-05-26T02:26:18.980Z,13.10
2019-05-26T02:26:54.590Z,13.10
2019-05-26T02:27:30.541Z,13.10
2019-05-26T02:28:05.831Z,13.10
2019-05-26T02:28:41.452Z,13.10
2019-05-26T02:29:17.416Z,13.10
2019-05-26T02:29:52.451Z,13.10
2019-05-26T02:30:28.364Z,13.10
2019-05-26T02:31:05.015Z,13.10
2019-05-26T02:31:40.047Z,13.10
2019-05-26T02:32:16.020Z,13.20
2019-05-26T02:32:51.954Z,13.20
2019-05-26T02:33:27.065Z,13.10
2019-05-26T02:34:02.868Z,13.20
2019-05-26T02:34:38.508Z,13.10
2019-05-26T02:35:13.727Z,13.20
2019-05-26T02:35:49.367Z,13.10
2019-05-26T02:36:25.255Z,13.10
2019-05-26T02:37:00.619Z,13.10
2019-05-26T02:37:36.718Z,13.10
2019-05-26T02:38:12.771Z,13.10
2019-05-26T02:39:00.984Z,13.10
2019-05-26T02:39:25.144Z,13.10
2019-05-26T02:40:01.281Z,13.10
2019-05-26T02:40:36.372Z,13.10
2019-05-26T02:41:12.239Z,13.10
2019-05-26T02:41:47.871Z,13.10
2019-05-26T02:42:22.897Z,13.10
2019-05-26T02:42:58.876Z,13.10
2019-05-26T02:43:34.505Z,13.10
2019-05-26T02:44:09.697Z,13.10
2019-05-26T02:44:45.315Z,13.10
2019-05-26T02:45:21.363Z,13.10
2019-05-26T02:45:56.460Z,13.10
2019-05-26T02:46:32.091Z,13.20
2019-05-26T02:47:07.711Z,13.20
2019-05-26T02:47:43.090Z,13.20
2019-05-26T02:48:18.994Z,13.20
2019-05-26T02:48:54.640Z,13.20
2019-05-26T02:49:30.374Z,13.20
2019-05-26T02:50:06.362Z,13.20
2019-05-26T02:50:41.967Z,13.20
2019-05-26T02:51:17.007Z,13.20
2019-05-26T02:51:52.635Z,13.20
2019-05-26T02:52:28.243Z,13.20
2019-05-26T02:53:03.920Z,13.20
2019-05-26T02:53:40.132Z,13.20
2019-05-26T02:54:15.998Z,13.20
2019-05-26T02:54:51.279Z,13.20
2019-05-26T02:55:27.096Z,13.20
2019-05-26T02:56:02.962Z,13.20
2019-05-26T02:56:37.998Z,13.20
2019-05-26T02:57:13.614Z,13.20
2019-05-26T02:57:49.574Z,13.20
2019-05-26T02:58:24.616Z,13.20
2019-05-26T02:59:00.732Z,13.20
2019-05-26T02:59:36.496Z,13.20
2019-05-26T03:00:11.694Z,13.20
2019-05-26T03:00:47.599Z,13.20
2019-05-26T03:01:24.016Z,13.20
2019-05-26T03:02:03.964Z,13.20
2019-05-26T03:02:36.486Z,13.20
2019-05-26T03:03:12.989Z,13.20
2019-05-26T03:03:49.075Z,13.10
2019-05-26T03:04:25.037Z,13.10
2019-05-26T03:05:00.671Z,13.20
2019-05-26T03:05:36.032Z,13.20
2019-05-26T03:06:11.736Z,13.10
2019-05-26T03:06:47.545Z,13.10
2019-05-26T03:07:22.744Z,13.10
2019-05-26T03:07:58.388Z,13.10
2019-05-26T03:08:34.372Z,13.20
2019-05-26T03:09:21.693Z,13.20
2019-05-26T03:09:47.036Z,13.10
2019-05-26T03:10:22.908Z,13.10
2019-05-26T03:10:58.650Z,13.10
2019-05-26T03:11:34.272Z,13.10
2019-05-26T03:12:10.856Z,13.10
2019-05-26T03:12:46.278Z,13.10
2019-05-26T03:13:21.967Z,13.10
2019-05-26T03:13:59.533Z,13.10
2019-05-26T03:14:35.159Z,13.10
2019-05-26T03:15:10.829Z,13.10
2019-05-26T03:15:46.768Z,13.10
2019-05-26T03:16:23.201Z,13.10
2019-05-26T03:16:58.992Z,13.10
2019-05-26T03:17:35.147Z,13.10
2019-05-26T03:18:10.188Z,13.10
2019-05-26T03:18:46.098Z,13.10
2019-05-26T03:19:21.727Z,13.10
2019-05-26T03:19:56.776Z,13.10
2019-05-26T03:20:32.411Z,13.10
2019-05-26T03:21:08.071Z,13.10
2019-05-26T03:21:43.127Z,13.10
2019-05-26T03:22:19.996Z,13.10
2019-05-26T03:22:55.629Z,13.10
2019-05-26T03:23:32.047Z,13.10
2019-05-26T03:24:07.702Z,13.10
2019-05-26T03:24:43.549Z,13.10
2019-05-26T03:25:18.598Z,13.10
2019-05-26T03:25:54.276Z,13.10
2019-05-26T03:26:30.840Z,13.10
2019-05-26T03:27:06.952Z,13.10
2019-05-26T03:27:42.573Z,13.10
2019-05-26T03:28:18.316Z,13.10
2019-05-26T03:28:53.619Z,13.10
2019-05-26T03:29:29.275Z,13.10
2019-05-26T03:30:05.526Z,13.10
2019-05-26T03:30:40.671Z,13.10
2019-05-26T03:31:16.751Z,13.10
2019-05-26T03:31:52.415Z,13.10
2019-05-26T03:32:27.894Z,13.10
2019-05-26T03:33:03.648Z,13.10
2019-05-26T03:33:39.516Z,13.10
2019-05-26T03:34:14.584Z,13.10
2019-05-26T03:34:50.224Z,13.10
2019-05-26T03:35:25.929Z,13.10
2019-05-26T03:36:00.967Z,13.10
2019-05-26T03:36:36.599Z,13.10
2019-05-26T03:37:12.227Z,13.10
2019-05-26T03:37:47.278Z,13.00
2019-05-26T03:38:23.310Z,13.00
2019-05-26T03:38:58.962Z,13.00
2019-05-26T03:39:44.565Z,13.00
2019-05-26T03:40:11.405Z,13.00
2019-05-26T03:40:47.307Z,13.00
2019-05-26T03:41:22.737Z,13.00
2019-05-26T03:41:58.372Z,13.00
2019-05-26T03:42:33.987Z,13.00
2019-05-26T03:43:09.411Z,13.00
2019-05-26T03:43:45.037Z,13.00
2019-05-26T03:44:20.734Z,13.00
2019-05-26T03:44:55.786Z,13.00
2019-05-26T03:46:06.462Z,13.00
2019-05-26T03:46:41.526Z,13.00
2019-05-26T03:47:17.437Z,13.00
2019-05-26T03:47:53.095Z,13.00
2019-05-26T03:48:28.139Z,13.00
2019-05-26T03:49:04.038Z,13.00
2019-05-26T03:49:39.727Z,13.00
2019-05-26T03:50:15.955Z,13.00
2019-05-26T03:50:51.903Z,13.00
2019-05-26T03:51:27.533Z,13.00
2019-05-26T03:52:02.962Z,13.00
2019-05-26T03:52:38.862Z,13.00
2019-05-26T03:53:14.584Z,13.00
2019-05-26T03:53:49.705Z,13.00
2019-05-26T03:54:25.351Z,13.00
2019-05-26T03:55:01.111Z,13.00
2019-05-26T03:55:36.216Z,13.00
2019-05-26T03:56:12.133Z,13.00
2019-05-26T03:56:47.933Z,13.00
2019-05-26T03:57:22.979Z,12.90
2019-05-26T03:57:58.610Z,13.00
2019-05-26T03:58:34.859Z,13.00
2019-05-26T03:59:10.009Z,13.00
2019-05-26T03:59:45.655Z,13.00
2019-05-26T04:00:21.330Z,13.00
2019-05-26T04:00:56.396Z,13.00
2019-05-26T04:01:32.160Z,13.00
2019-05-26T04:02:07.804Z,13.00
2019-05-26T04:02:43.142Z,13.10
2019-05-26T04:03:18.784Z,13.10
2019-05-26T04:04:04.186Z,13.10
2019-05-26T04:04:39.218Z,13.10
2019-05-26T04:05:14.935Z,13.00
2019-05-26T04:05:50.567Z,13.00
2019-05-26T04:06:25.627Z,13.10
2019-05-26T04:07:01.270Z,13.10
2019-05-26T04:07:37.162Z,13.10
2019-05-26T04:08:12.211Z,13.10
2019-05-26T04:08:48.085Z,13.00
2019-05-26T04:09:23.724Z,13.10
2019-05-26T04:10:05.637Z,13.10
2019-05-26T04:10:36.507Z,13.10
2019-05-26T04:11:12.147Z,13.10
2019-05-26T04:11:47.420Z,13.10
2019-05-26T04:12:23.295Z,13.10
2019-05-26T04:12:58.921Z,13.00
2019-05-26T04:13:33.969Z,13.00
2019-05-26T04:14:09.626Z,13.10
2019-05-26T04:14:45.244Z,13.00
2019-05-26T04:15:20.307Z,13.00
2019-05-26T04:15:56.272Z,13.10
2019-05-26T04:16:31.907Z,13.00
2019-05-26T04:17:07.090Z,13.10
2019-05-26T04:17:42.713Z,13.10
2019-05-26T04:18:18.411Z,13.10
2019-05-26T04:18:53.499Z,13.10
2019-05-26T04:19:29.135Z,13.10
2019-05-26T04:20:04.936Z,13.10
2019-05-26T04:20:40.215Z,13.10
2019-05-26T04:21:16.928Z,13.10
2019-05-26T04:21:52.882Z,13.10
2019-05-26T04:22:27.923Z,13.10
2019-05-26T04:23:03.924Z,13.20
2019-05-26T04:23:39.561Z,13.20
2019-05-26T04:24:14.599Z,13.10
2019-05-26T04:24:50.243Z,13.20
2019-05-26T04:25:25.876Z,13.20
2019-05-26T04:26:00.999Z,13.10
2019-05-26T04:26:36.652Z,13.20
2019-05-26T04:27:12.808Z,13.10
2019-05-26T04:27:47.873Z,13.10
2019-05-26T04:28:23.494Z,13.10
2019-05-26T04:28:59.144Z,13.10
2019-05-26T04:29:34.171Z,13.10
2019-05-26T04:30:09.793Z,13.10
2019-05-26T04:30:45.426Z,13.10
2019-05-26T04:31:20.463Z,13.10
2019-05-26T04:31:56.088Z,13.20
2019-05-26T04:32:31.717Z,13.20
2019-05-26T04:33:06.752Z,13.20
2019-05-26T04:33:42.422Z,13.20
2019-05-26T04:34:18.110Z,13.20
2019-05-26T04:34:53.147Z,13.20
2019-05-26T04:35:28.791Z,13.20
2019-05-26T04:36:04.772Z,13.10
2019-05-26T04:36:39.810Z,13.20
2019-05-26T04:37:15.439Z,13.10
2019-05-26T04:37:51.063Z,13.10
2019-05-26T04:38:26.099Z,13.10
2019-05-26T04:39:02.034Z,13.10
2019-05-26T04:39:38.925Z,13.10
2019-05-26T04:40:26.510Z,13.10
2019-05-26T04:40:51.612Z,13.10
2019-05-26T04:41:27.232Z,13.10
2019-05-26T04:42:02.341Z,13.10
2019-05-26T04:42:37.962Z,13.00
2019-05-26T04:43:15.133Z,13.00
2019-05-26T04:43:50.628Z,13.00
2019-05-26T04:44:26.249Z,13.00
2019-05-26T04:45:02.170Z,13.00
2019-05-26T04:45:37.291Z,13.00
2019-05-26T04:46:12.940Z,13.00
2019-05-26T04:46:48.538Z,13.00
2019-05-26T04:47:23.692Z,13.00
2019-05-26T04:47:59.350Z,13.00
2019-05-26T04:48:34.971Z,13.00
2019-05-26T04:49:10.007Z,13.10
2019-05-26T04:49:45.645Z,13.00
2019-05-26T04:50:22.362Z,13.00
2019-05-26T04:50:57.395Z,13.10
2019-05-26T04:51:33.370Z,13.10
2019-05-26T04:52:09.053Z,13.10
2019-05-26T04:53:04.091Z,13.10
2019-05-26T04:53:21.420Z,13.10
2019-05-26T04:53:57.677Z,13.20
2019-05-26T04:54:32.961Z,13.20
2019-05-26T04:55:08.587Z,13.20
2019-05-26T04:55:44.444Z,13.20
2019-05-26T04:56:19.476Z,13.20
2019-05-26T04:56:55.119Z,13.20
2019-05-26T04:57:30.765Z,13.20
2019-05-26T04:58:05.802Z,13.20
2019-05-26T04:58:41.436Z,13.20
2019-05-26T04:59:17.482Z,13.20
2019-05-26T04:59:52.592Z,13.20
2019-05-26T05:00:28.270Z,13.20
2019-05-26T05:01:04.095Z,13.20
2019-05-26T05:01:39.413Z,13.20
2019-05-26T05:02:15.074Z,13.30
2019-05-26T05:02:50.721Z,13.30
2019-05-26T05:03:25.756Z,13.30
2019-05-26T05:04:01.386Z,13.30
2019-05-26T05:04:37.090Z,13.30
2019-05-26T05:05:12.412Z,13.30
2019-05-26T05:05:48.304Z,13.30
2019-05-26T05:06:24.011Z,13.40
2019-05-26T05:06:59.439Z,13.40
2019-05-26T05:07:35.063Z,13.40
2019-05-26T05:08:10.679Z,13.40
2019-05-26T05:08:46.019Z,13.50
2019-05-26T05:09:21.917Z,13.50
2019-05-26T05:09:57.555Z,13.50
2019-05-26T05:10:41.934Z,13.50
2019-05-26T05:11:10.199Z,13.50
2019-05-26T05:11:46.113Z,13.50
2019-05-26T05:12:21.147Z,13.50
2019-05-26T05:12:56.838Z,13.50
2019-05-26T05:13:32.459Z,13.60
2019-05-26T05:14:07.583Z,13.60
2019-05-26T05:14:43.207Z,13.60
2019-05-26T05:15:18.847Z,13.60
2019-05-26T05:15:54.154Z,13.60
2019-05-26T05:16:29.791Z,13.60
2019-05-26T05:17:05.433Z,13.70
2019-05-26T05:17:40.758Z,13.70
2019-05-26T05:18:16.373Z,13.70
2019-05-26T05:18:51.998Z,13.70
2019-05-26T05:19:27.035Z,13.70
2019-05-26T05:20:02.695Z,13.80
2019-05-26T05:20:38.383Z,13.80
2019-05-26T05:21:13.418Z,13.80
2019-05-26T05:21:49.375Z,13.80
2019-05-26T05:22:25.076Z,13.90
2019-05-26T05:23:00.121Z,13.90
2019-05-26T05:23:35.777Z,13.90
2019-05-26T05:24:11.466Z,14.00
2019-05-26T05:24:46.871Z,14.00
2019-05-26T05:25:22.515Z,14.00
2019-05-26T05:25:59.414Z,14.00
2019-05-26T05:26:34.455Z,14.10
2019-05-26T05:27:10.328Z,14.10
2019-05-26T05:27:46.384Z,14.10
2019-05-26T05:28:22.115Z,14.10
2019-05-26T05:28:57.775Z,14.10
2019-05-26T05:29:33.650Z,14.20
2019-05-26T05:30:09.007Z,14.20
2019-05-26T05:30:44.956Z,14.20
2019-05-26T05:31:21.275Z,14.20
2019-05-26T05:31:56.648Z,14.20
2019-05-26T05:32:33.735Z,14.30
2019-05-26T05:33:12.321Z,14.20
2019-05-26T05:33:47.371Z,14.20
2019-05-26T05:34:23.232Z,14.20
2019-05-26T05:34:58.854Z,14.20
2019-05-26T05:35:33.943Z,14.30
2019-05-26T05:36:09.839Z,14.30
2019-05-26T05:36:45.468Z,14.30
2019-05-26T05:37:20.782Z,14.40
2019-05-26T05:37:56.391Z,14.40
2019-05-26T05:38:32.004Z,14.40
2019-05-26T05:39:08.202Z,14.40
2019-05-26T05:39:44.163Z,14.40
2019-05-26T05:40:20.460Z,14.40
2019-05-26T05:40:59.915Z,14.40
2019-05-26T05:41:33.430Z,14.40
2019-05-26T05:42:09.064Z,14.50
2019-05-26T05:42:44.586Z,14.40
2019-05-26T05:43:21.386Z,14.40
2019-05-26T05:43:57.651Z,14.50
2019-05-26T05:44:32.693Z,14.50
2019-05-26T05:45:08.449Z,14.50
2019-05-26T05:45:44.679Z,14.50
2019-05-26T05:46:20.639Z,14.50
2019-05-26T05:46:56.282Z,14.50
2019-05-26T05:47:31.920Z,14.40
2019-05-26T05:48:07.053Z,14.50
2019-05-26T05:48:42.771Z,14.50
2019-05-26T05:49:18.414Z,14.50
2019-05-26T05:49:53.467Z,14.50
2019-05-26T05:50:29.087Z,14.50
2019-05-26T05:51:04.966Z,14.50
2019-05-26T05:51:40.071Z,14.50
2019-05-26T05:52:15.696Z,14.50
2019-05-26T05:52:51.328Z,14.50
2019-05-26T05:53:26.505Z,14.50
2019-05-26T05:54:02.463Z,14.50
2019-05-26T05:54:38.133Z,14.50
2019-05-26T05:55:13.220Z,14.50
2019-05-26T05:55:48.859Z,14.50
2019-05-26T05:56:24.479Z,14.50
2019-05-26T05:56:59.520Z,14.50
2019-05-26T05:57:35.147Z,14.50
2019-05-26T05:58:10.783Z,14.50
2019-05-26T05:58:45.898Z,14.50
2019-05-26T05:59:21.527Z,14.50
2019-05-26T05:59:57.140Z,14.60
2019-05-26T06:00:32.172Z,14.50
2019-05-26T06:01:07.786Z,14.60
2019-05-26T06:01:43.443Z,14.50
2019-05-26T06:02:18.494Z,14.60
2019-05-26T06:02:54.102Z,14.60
2019-05-26T06:03:29.722Z,14.60
2019-05-26T06:04:05.164Z,14.60
2019-05-26T06:04:40.792Z,14.60
2019-05-26T06:05:16.700Z,14.60
2019-05-26T06:05:51.779Z,14.60
2019-05-26T06:06:27.636Z,14.60
2019-05-26T06:07:04.287Z,14.60
2019-05-26T06:07:39.331Z,14.60
2019-05-26T06:08:14.955Z,14.60
2019-05-26T06:08:50.648Z,14.60
2019-05-26T06:09:26.092Z,14.60
2019-05-26T06:10:01.771Z,14.60
2019-05-26T06:10:37.696Z,14.60
2019-05-26T06:11:16.364Z,14.60
2019-05-26T06:11:53.274Z,14.60
2019-05-26T06:12:29.148Z,14.60
2019-05-26T06:13:04.615Z,14.60
2019-05-26T06:13:40.610Z,14.60
2019-05-26T06:14:16.579Z,14.60
2019-05-26T06:14:51.626Z,14.60
2019-05-26T06:15:27.261Z,14.60
2019-05-26T06:16:02.960Z,14.60
2019-05-26T06:16:38.003Z,14.70
2019-05-26T06:17:13.637Z,14.70
2019-05-26T06:17:49.742Z,14.60
2019-05-26T06:18:25.298Z,14.70
2019-05-26T06:19:00.919Z,14.70
2019-05-26T06:19:37.499Z,14.70
2019-05-26T06:20:12.526Z,14.70
2019-05-26T06:20:48.158Z,14.80
2019-05-26T06:21:24.330Z,14.70
2019-05-26T06:21:59.376Z,14.80
2019-05-26T06:22:35.243Z,14.80
2019-05-26T06:23:10.863Z,14.80
2019-05-26T06:23:45.902Z,14.80
2019-05-26T06:24:21.546Z,14.90
2019-05-26T06:24:57.165Z,14.90
2019-05-26T06:25:32.304Z,14.90
2019-05-26T06:26:07.947Z,14.90
2019-05-26T06:26:43.597Z,14.90
2019-05-26T06:27:19.267Z,14.90
2019-05-26T06:27:55.142Z,15.00
2019-05-26T06:28:30.774Z,15.00
2019-05-26T06:29:05.802Z,15.00
2019-05-26T06:29:57.611Z,15.00
2019-05-26T06:30:19.170Z,15.00
2019-05-26T06:30:54.494Z,15.00
2019-05-26T06:31:30.131Z,15.10
2019-05-26T06:32:06.083Z,15.00
2019-05-26T06:32:41.283Z,15.10
2019-05-26T06:33:16.938Z,15.00
2019-05-26T06:33:52.827Z,15.10
2019-05-26T06:34:27.884Z,15.10
2019-05-26T06:35:03.588Z,15.10
2019-05-26T06:35:39.237Z,15.10
2019-05-26T06:36:14.294Z,15.20
2019-05-26T06:36:49.934Z,15.20
2019-05-26T06:37:25.563Z,15.20
2019-05-26T06:38:00.975Z,15.20
2019-05-26T06:38:36.602Z,15.20
2019-05-26T06:39:12.226Z,15.30
2019-05-26T06:39:47.818Z,15.30
2019-05-26T06:40:23.703Z,15.30
2019-05-26T06:40:59.346Z,15.30
2019-05-26T06:41:34.390Z,15.30
2019-05-26T06:42:13.149Z,15.30
2019-05-26T06:42:48.687Z,15.30
2019-05-26T06:43:23.977Z,15.30
2019-05-26T06:43:59.621Z,15.40
2019-05-26T06:44:52.074Z,15.40
2019-05-26T06:45:11.995Z,15.50
2019-05-26T06:45:47.651Z,15.50
2019-05-26T06:46:23.540Z,15.50
2019-05-26T06:46:59.691Z,15.50
2019-05-26T06:47:35.349Z,15.60
2019-05-26T06:48:11.227Z,15.60
2019-05-26T06:48:46.418Z,15.60
2019-05-26T06:49:22.433Z,15.70
2019-05-26T06:49:58.538Z,15.70
2019-05-26T06:50:33.673Z,15.80
2019-05-26T06:51:09.318Z,15.80
2019-05-26T06:51:44.990Z,15.90
2019-05-26T06:52:20.287Z,15.90
2019-05-26T06:52:55.922Z,16.00
2019-05-26T06:53:31.569Z,16.00
2019-05-26T06:54:07.158Z,16.00
2019-05-26T06:54:42.766Z,16.00
2019-05-26T06:55:18.435Z,16.10
2019-05-26T06:55:53.459Z,16.10
2019-05-26T06:56:29.363Z,16.20
2019-05-26T06:57:05.151Z,16.20
2019-05-26T06:57:40.557Z,16.20
2019-05-26T06:58:16.239Z,16.20
2019-05-26T06:58:51.898Z,16.30
2019-05-26T06:59:26.947Z,16.30
2019-05-26T07:00:02.602Z,16.30
2019-05-26T07:00:38.304Z,16.30
2019-05-26T07:01:13.378Z,16.30
2019-05-26T07:01:49.021Z,16.30
2019-05-26T07:02:24.622Z,16.40
2019-05-26T07:02:59.943Z,16.40
2019-05-26T07:03:35.584Z,16.40
2019-05-26T07:04:11.652Z,16.40
2019-05-26T07:04:46.687Z,16.40
2019-05-26T07:05:22.392Z,16.40
2019-05-26T07:05:58.014Z,16.40
2019-05-26T07:06:33.068Z,16.50
2019-05-26T07:07:08.759Z,16.50
2019-05-26T07:07:44.374Z,16.50
2019-05-26T07:08:19.434Z,16.50
2019-05-26T07:08:55.075Z,16.50
2019-05-26T07:09:30.710Z,16.50
2019-05-26T07:10:05.982Z,16.50
2019-05-26T07:10:41.634Z,16.50
2019-05-26T07:11:17.256Z,16.50
2019-05-26T07:11:59.700Z,16.60
2019-05-26T07:12:29.656Z,16.60
2019-05-26T07:13:05.286Z,16.60
2019-05-26T07:13:40.407Z,16.60
2019-05-26T07:14:16.027Z,16.70
2019-05-26T07:14:51.663Z,16.70
2019-05-26T07:15:26.719Z,16.70
2019-05-26T07:16:02.486Z,16.70
2019-05-26T07:16:38.975Z,16.70
2019-05-26T07:17:14.154Z,16.70
2019-05-26T07:17:49.775Z,16.80
2019-05-26T07:18:25.414Z,16.80
2019-05-26T07:19:00.515Z,16.80
2019-05-26T07:19:36.167Z,16.80
2019-05-26T07:20:11.870Z,16.90
2019-05-26T07:20:46.946Z,16.90
2019-05-26T07:21:22.595Z,16.90
2019-05-26T07:21:58.488Z,16.90
2019-05-26T07:22:33.515Z,16.90
2019-05-26T07:23:09.568Z,16.90
2019-05-26T07:23:45.963Z,17.00
2019-05-26T07:24:21.099Z,17.00
2019-05-26T07:24:56.760Z,17.00
2019-05-26T07:25:32.485Z,17.00
2019-05-26T07:26:07.791Z,17.00
2019-05-26T07:26:44.653Z,17.00
2019-05-26T07:27:20.278Z,17.00
2019-05-26T07:27:55.374Z,17.00
2019-05-26T07:28:31.191Z,17.00
2019-05-26T07:29:06.824Z,17.00
2019-05-26T07:29:42.323Z,17.00
2019-05-26T07:30:17.990Z,17.00
2019-05-26T07:30:53.868Z,17.00
2019-05-26T07:31:28.944Z,17.00
2019-05-26T07:32:04.816Z,17.00
2019-05-26T07:32:40.463Z,17.00
2019-05-26T07:33:15.636Z,17.00
2019-05-26T07:33:51.310Z,17.00
2019-05-26T07:34:26.936Z,17.00
2019-05-26T07:35:02.035Z,17.00
2019-05-26T07:35:37.671Z,17.00
2019-05-26T07:36:13.307Z,17.10
2019-05-26T07:36:48.349Z,17.10
2019-05-26T07:37:23.999Z,17.10
2019-05-26T07:37:59.614Z,17.10
2019-05-26T07:38:34.691Z,17.10
2019-05-26T07:39:10.715Z,17.20
2019-05-26T07:39:46.685Z,17.20
2019-05-26T07:40:22.137Z,17.20